createdAt,value
2022-07-26T00:00:04.631Z,3.50
2022-07-26T00:04:56.259Z,2.95
2022-07-26T00:09:48.499Z,4.13
2022-07-26T00:14:40.360Z,6.50
2022-07-26T00:19:32.761Z,4.75
2022-07-26T00:24:24.386Z,1.77
2022-07-26T00:29:16.010Z,0.90
2022-07-26T00:34:07.611Z,1.08
2022-07-26T00:38:59.226Z,0.82
2022-07-26T00:43:56.037Z,0.95
2022-07-26T00:48:47.725Z,0.43
2022-07-26T00:53:39.435Z,0.43
2022-07-26T00:58:31.103Z,1.70
2022-07-26T01:03:22.719Z,1.38
2022-07-26T01:08:21.067Z,0.57
2022-07-26T01:13:13.313Z,0.43
2022-07-26T01:18:05.005Z,1.45
2022-07-26T01:22:56.712Z,2.83
2022-07-26T01:27:48.363Z,0.95
2022-07-26T01:32:40.236Z,1.20
2022-07-26T01:37:31.965Z,2.03
2022-07-26T01:42:23.631Z,1.50
2022-07-26T01:47:15.350Z,1.20
2022-07-26T01:52:07.024Z,4.97
2022-07-26T01:56:59.000Z,2.40
2022-07-26T02:01:50.712Z,0.77
2022-07-26T02:06:42.429Z,1.83
2022-07-26T02:11:36.034Z,2.15
2022-07-26T02:16:27.835Z,1.05
2022-07-26T02:21:19.554Z,1.40
2022-07-26T02:26:11.338Z,1.88
2022-07-26T02:31:03.084Z,1.50
2022-07-26T02:35:54.811Z,0.93
2022-07-26T02:41:01.618Z,0.55
2022-07-26T02:46:01.026Z,1.92
2022-07-26T02:50:53.618Z,2.20
2022-07-26T02:55:45.217Z,0.73
2022-07-26T03:00:36.841Z,1.00
2022-07-26T03:05:28.628Z,1.13
2022-07-26T03:10:20.464Z,0.80
2022-07-26T03:15:12.694Z,1.02
2022-07-26T03:20:05.208Z,0.75
2022-07-26T03:24:56.937Z,0.75
2022-07-26T03:29:48.571Z,0.65
2022-07-26T03:34:40.211Z,0.60
2022-07-26T03:39:31.908Z,1.77
2022-07-26T03:44:23.561Z,0.10
2022-07-26T03:49:17.135Z,0.20
2022-07-26T03:54:09.561Z,0.40
2022-07-26T03:59:08.247Z,0.88
2022-07-26T04:04:00.076Z,0.50
2022-07-26T04:08:53.618Z,0.85
2022-07-26T04:13:45.240Z,0.60
2022-07-26T04:18:38.671Z,0.60
2022-07-26T04:23:30.297Z,0.60
2022-07-26T04:28:22.042Z,0.90
2022-07-26T04:33:13.703Z,3.33
2022-07-26T04:38:05.388Z,1.08
2022-07-26T04:42:57.017Z,1.10
2022-07-26T04:47:50.790Z,1.77
2022-07-26T04:52:42.607Z,6.13
2022-07-26T04:57:34.926Z,7.75
2022-07-26T05:02:28.065Z,5.13
2022-07-26T05:07:19.799Z,6.68
2022-07-26T05:12:11.507Z,5.25
2022-07-26T05:17:08.696Z,11.05
2022-07-26T05:22:01.982Z,8.30
2022-07-26T05:26:58.488Z,9.80
2022-07-26T05:31:50.323Z,7.50
2022-07-26T05:36:41.983Z,7.47
2022-07-26T05:41:33.598Z,4.00
2022-07-26T05:46:25.413Z,3.58
2022-07-26T05:51:17.130Z,7.00
2022-07-26T05:56:09.116Z,4.50
2022-07-26T06:01:00.792Z,6.63
2022-07-26T06:05:55.604Z,8.10
2022-07-26T06:10:51.040Z,6.32
2022-07-26T06:15:43.169Z,6.05
2022-07-26T06:20:38.018Z,8.50
2022-07-26T06:25:29.666Z,11.98
2022-07-26T06:30:21.293Z,10.48
2022-07-26T06:35:14.560Z,7.85
2022-07-26T06:40:08.357Z,5.90
2022-07-26T06:45:01.019Z,3.72
2022-07-26T06:49:52.777Z,10.40
2022-07-26T06:54:44.678Z,5.53
2022-07-26T06:59:36.354Z,3.03
2022-07-26T07:04:29.811Z,3.13
2022-07-26T07:09:21.516Z,4.47
2022-07-26T07:14:13.114Z,3.72
2022-07-26T07:19:04.717Z,3.67
2022-07-26T07:23:56.354Z,3.55
2022-07-26T07:28:48.652Z,7.00
2022-07-26T07:33:52.478Z,6.43
2022-07-26T07:38:45.479Z,3.90
2022-07-26T07:43:37.617Z,3.72
2022-07-26T07:48:29.373Z,4.88
2022-07-26T07:53:21.067Z,5.43
2022-07-26T07:58:13.278Z,5.20
2022-07-26T08:03:06.193Z,9.77
2022-07-26T08:07:58.210Z,6.47
2022-07-26T08:12:51.295Z,3.67
2022-07-26T08:17:43.331Z,3.78
2022-07-26T08:22:36.268Z,3.15
2022-07-26T08:27:27.977Z,3.70
2022-07-26T08:32:19.597Z,6.05
2022-07-26T08:37:18.681Z,2.85
2022-07-26T08:42:22.808Z,3.55
2022-07-26T08:47:16.504Z,2.58
2022-07-26T08:52:27.348Z,1.83
2022-07-26T08:57:19.094Z,3.80
2022-07-26T09:02:13.158Z,2.80
2022-07-26T09:07:10.043Z,5.47
2022-07-26T09:12:32.129Z,2.85
2022-07-26T09:17:25.693Z,3.03
2022-07-26T09:22:17.394Z,4.40
2022-07-26T09:27:12.914Z,4.57
2022-07-26T09:32:22.551Z,3.92
2022-07-26T09:37:14.292Z,1.35
2022-07-26T09:47:21.682Z,3.50
2022-07-26T09:52:18.339Z,2.65
2022-07-26T09:57:10.840Z,7.33
2022-07-26T10:02:02.658Z,6.28
2022-07-26T10:06:55.874Z,6.78
2022-07-26T10:11:59.934Z,3.58
2022-07-26T10:16:51.910Z,3.72
2022-07-26T10:21:43.777Z,5.38
2022-07-26T10:26:37.552Z,2.95
2022-07-26T10:31:30.517Z,3.25
2022-07-26T10:36:28.799Z,2.13
2022-07-26T10:41:32.016Z,4.18
2022-07-26T10:46:27.030Z,4.78
2022-07-26T10:51:32.929Z,4.35
2022-07-26T10:56:24.561Z,4.03
2022-07-26T11:01:16.597Z,3.70
2022-07-26T11:06:19.047Z,2.63
2022-07-26T11:11:10.907Z,3.60
2022-07-26T11:16:05.700Z,2.22
2022-07-26T11:21:08.853Z,2.88
2022-07-26T11:26:03.348Z,2.45
2022-07-26T11:31:01.551Z,3.92
2022-07-26T11:35:55.559Z,2.20
2022-07-26T11:40:48.628Z,2.00
2022-07-26T11:45:42.068Z,1.60
2022-07-26T11:50:33.854Z,4.45
2022-07-26T11:55:30.304Z,3.28
2022-07-26T12:00:23.689Z,2.57
2022-07-26T12:05:22.196Z,2.92
2022-07-26T12:10:16.709Z,1.50
2022-07-26T12:15:08.522Z,2.38
2022-07-26T12:20:15.203Z,1.42
2022-07-26T12:25:09.261Z,2.72
2022-07-26T12:30:01.039Z,2.60
2022-07-26T12:35:09.319Z,2.55
2022-07-26T12:40:12.879Z,1.80
2022-07-26T12:45:08.567Z,2.72
2022-07-26T12:50:01.397Z,3.10
2022-07-26T12:54:53.578Z,3.47
2022-07-26T12:59:45.876Z,3.42
2022-07-26T13:04:38.155Z,1.92
2022-07-26T13:09:30.024Z,1.35
2022-07-26T13:14:21.800Z,2.58
2022-07-26T13:19:13.572Z,4.63
2022-07-26T13:24:07.459Z,1.95
2022-07-26T13:29:01.089Z,2.25
2022-07-26T13:33:52.751Z,2.45
2022-07-26T13:38:44.461Z,1.98
2022-07-26T13:43:36.660Z,1.42
2022-07-26T13:48:28.477Z,1.00
2022-07-26T13:53:20.583Z,1.38
2022-07-26T13:58:12.229Z,2.25
2022-07-26T14:03:04.175Z,1.40
2022-07-26T14:07:57.557Z,1.65
2022-07-26T14:12:49.969Z,5.20
2022-07-26T14:17:41.667Z,3.80
2022-07-26T14:22:33.360Z,2.50
2022-07-26T14:27:25.017Z,1.90
2022-07-26T14:32:21.320Z,2.45
2022-07-26T14:37:42.634Z,2.75
2022-07-26T14:42:25.219Z,1.75
2022-07-26T14:47:16.926Z,2.40
2022-07-26T14:52:08.653Z,1.45
2022-07-26T14:57:00.325Z,1.27
2022-07-26T15:01:52.045Z,6.35
2022-07-26T15:06:43.772Z,0.63
2022-07-26T15:11:35.550Z,1.45
2022-07-26T15:16:27.365Z,4.13
2022-07-26T15:21:19.315Z,1.38
2022-07-26T15:26:11.044Z,0.98
2022-07-26T15:31:02.657Z,1.17
2022-07-26T15:35:55.529Z,2.70
2022-07-26T15:40:47.440Z,2.00
2022-07-26T15:45:41.403Z,3.13
2022-07-26T15:50:33.531Z,2.95
2022-07-26T15:55:26.646Z,1.50
2022-07-26T16:00:18.735Z,1.67
2022-07-26T16:05:11.015Z,2.13
2022-07-26T16:10:02.713Z,1.13
2022-07-26T16:14:54.359Z,1.17
2022-07-26T16:19:46.044Z,1.80
2022-07-26T16:24:37.703Z,2.15
2022-07-26T16:29:29.496Z,0.80
2022-07-26T16:34:21.173Z,1.65
2022-07-26T16:39:13.881Z,2.22
2022-07-26T16:44:05.999Z,1.77
2022-07-26T16:48:57.878Z,1.73
2022-07-26T16:53:51.481Z,2.42
2022-07-26T16:58:43.286Z,1.80
2022-07-26T17:03:35.193Z,1.27
2022-07-26T17:08:27.283Z,1.83
2022-07-26T17:13:18.979Z,3.38
2022-07-26T17:18:10.679Z,1.92
2022-07-26T17:23:02.335Z,1.80
2022-07-26T17:27:54.169Z,3.40
2022-07-26T17:32:46.221Z,2.05
2022-07-26T17:37:38.015Z,1.58
2022-07-26T17:42:31.963Z,2.10
2022-07-26T17:47:28.768Z,1.77
2022-07-26T17:52:21.478Z,2.42
2022-07-26T17:57:13.116Z,3.00
2022-07-26T18:02:04.977Z,2.67
2022-07-26T18:06:56.685Z,2.28
2022-07-26T18:11:48.670Z,2.35
2022-07-26T18:16:41.571Z,3.45
2022-07-26T18:21:33.276Z,1.88
2022-07-26T18:26:25.050Z,1.08
2022-07-26T18:31:16.797Z,3.15
2022-07-26T18:36:08.505Z,1.00
2022-07-26T18:41:00.150Z,2.00
2022-07-26T18:45:51.898Z,1.25
2022-07-26T18:50:44.034Z,4.03
2022-07-26T18:55:35.742Z,1.38
2022-07-26T19:00:29.642Z,1.13
2022-07-26T19:05:22.910Z,2.28
2022-07-26T19:10:15.119Z,1.75
2022-07-26T19:15:07.601Z,1.05
2022-07-26T19:20:00.809Z,1.98
2022-07-26T19:24:52.764Z,2.80
2022-07-26T19:29:44.994Z,4.88
2022-07-26T19:34:36.725Z,1.75
2022-07-26T19:39:28.409Z,1.60
2022-07-26T19:44:20.323Z,0.73
2022-07-26T19:49:12.792Z,1.70
2022-07-26T19:54:05.726Z,2.55
2022-07-26T19:58:58.159Z,1.60
2022-07-26T20:03:50.187Z,0.52
2022-07-26T20:08:42.179Z,1.27
2022-07-26T20:13:33.875Z,0.77
2022-07-26T20:18:28.366Z,0.73
2022-07-26T20:23:20.482Z,3.85
2022-07-26T20:28:12.154Z,1.95
2022-07-26T20:33:04.042Z,3.70
2022-07-26T20:37:56.469Z,1.27
2022-07-26T20:42:50.079Z,0.95
2022-07-26T20:47:43.210Z,3.95
2022-07-26T20:52:35.112Z,1.88
2022-07-26T20:57:26.738Z,2.30
2022-07-26T21:02:18.491Z,1.48
2022-07-26T21:07:10.255Z,1.70
2022-07-26T21:12:01.972Z,2.05
2022-07-26T21:16:53.800Z,1.65
2022-07-26T21:21:45.533Z,2.58
2022-07-26T21:26:37.393Z,2.95
2022-07-26T21:31:29.128Z,0.55
2022-07-26T21:36:20.756Z,5.13
2022-07-26T21:41:13.606Z,1.70
2022-07-26T21:46:10.383Z,0.43
2022-07-26T21:51:04.274Z,1.70
2022-07-26T21:55:57.142Z,1.65
2022-07-26T22:00:48.989Z,1.77
2022-07-26T22:05:43.957Z,1.73
2022-07-26T22:10:42.344Z,2.00
2022-07-26T22:15:36.550Z,2.20
2022-07-26T22:20:30.994Z,1.08
2022-07-26T22:25:22.688Z,1.27
2022-07-26T22:30:14.560Z,3.83
2022-07-26T22:35:06.527Z,2.53
2022-07-26T22:39:58.210Z,1.38
2022-07-26T22:44:49.860Z,1.50
2022-07-26T22:49:41.546Z,2.70
2022-07-26T22:54:33.239Z,1.35
2022-07-26T22:59:25.435Z,1.73
2022-07-26T23:04:17.253Z,1.92
2022-07-26T23:09:09.363Z,4.90
2022-07-26T23:14:01.254Z,1.08
2022-07-26T23:18:52.923Z,0.75
2022-07-26T23:23:44.570Z,1.13
2022-07-26T23:28:38.462Z,1.42
2022-07-26T23:33:53.076Z,0.85
2022-07-26T23:38:42.336Z,0.90
2022-07-26T23:43:33.958Z,1.60
2022-07-26T23:48:25.763Z,1.58
2022-07-26T23:53:17.403Z,1.88
2022-07-26T23:58:11.925Z,4.28
